Time;durP1;ratioP1;P1;durP2;ratioP2;P2;SDS_P1;SDS_P2;PMS_P1;PMS_P2;Temp;Humidity;BMP_temperature;BMP_pressure;BME280_temperature;BME280_humidity;BME280_pressure;Samples;Min_cycle;Max_cycle;Signal;HPM_P1;HPM_P2
2023/01/29 00:02:04;;;;;;;0.00;0.00;;;4.80;87.10;;;;;;4951395;29;20111;-70
2023/01/29 00:04:30;;;;;;;0.00;0.00;;;4.80;87.10;;;;;;4956632;28;20057;-70
2023/01/29 00:06:56;;;;;;;0.00;0.00;;;4.80;87.30;;;;;;4971070;28;20496;-70
2023/01/29 00:09:21;;;;;;;4.47;0.63;;;4.80;87.30;;;;;;4970920;28;20046;-70
2023/01/29 00:11:47;;;;;;;0.00;0.00;;;4.80;87.40;;;;;;4971048;28;20077;-70
2023/01/29 00:14:12;;;;;;;0.00;0.00;;;4.80;87.40;;;;;;4951764;28;20247;-70
2023/01/29 00:16:38;;;;;;;0.10;0.10;;;4.80;87.40;;;;;;4970878;28;20078;-70
2023/01/29 00:19:04;;;;;;;0.00;0.00;;;4.80;87.40;;;;;;4970996;28;20050;-71
2023/01/29 00:21:30;;;;;;;0.00;0.00;;;4.80;87.40;;;;;;4970707;28;20050;-70
2023/01/29 00:23:57;;;;;;;0.00;0.00;;;4.70;87.70;;;;;;4969473;28;20114;-70
2023/01/29 00:26:23;;;;;;;0.00;0.00;;;4.80;87.70;;;;;;4936827;28;20085;-70
2023/01/29 00:28:48;;;;;;;0.00;0.00;;;4.80;87.60;;;;;;4970614;28;20098;-70
2023/01/29 00:31:19;;;;;;;0.10;0.10;;;4.80;87.60;;;;;;4970693;28;20047;-71
2023/01/29 00:33:44;;;;;;;0.05;0.05;;;4.80;87.60;;;;;;4970607;28;20078;-71
2023/01/29 00:36:12;;;;;;;0.10;0.10;;;4.80;87.70;;;;;;4951825;28;20059;-70
2023/01/29 00:38:38;;;;;;;0.08;0.08;;;4.70;87.70;;;;;;4959560;28;20050;-70
2023/01/29 00:46:37;;;;;;;0.00;0.00;;;4.80;87.60;;;;;;4970292;28;20047;-70
2023/01/29 00:49:03;;;;;;;0.00;0.00;;;4.80;87.70;;;;;;4970518;28;20049;-70
2023/01/29 00:51:29;;;;;;;0.00;0.00;;;4.90;87.70;;;;;;4953698;28;20039;-70
2023/01/29 00:53:57;;;;;;;0.10;0.10;;;4.80;87.80;;;;;;4951248;28;20043;-70
2023/01/29 00:56:24;;;;;;;0.00;0.00;;;4.80;88.00;;;;;;4951212;29;20047;-70
2023/01/29 00:58:49;;;;;;;0.00;0.00;;;4.80;87.90;;;;;;4950948;28;20484;-70
2023/01/29 01:01:15;;;;;;;0.15;0.15;;;4.80;87.80;;;;;;4964338;28;20106;-70
2023/01/29 01:03:41;;;;;;;0.00;0.00;;;4.90;87.80;;;;;;4970333;28;20043;-70
2023/01/29 01:06:09;;;;;;;0.10;0.10;;;4.90;87.80;;;;;;4953317;28;20055;-70
2023/01/29 01:11:20;;;;;;;0.00;0.00;;;4.90;87.70;;;;;;4950859;28;20138;-70
2023/01/29 01:13:46;;;;;;;0.52;0.52;;;4.90;87.80;;;;;;4950991;28;20518;-70
2023/01/29 01:16:14;;;;;;;0.10;0.10;;;4.90;87.60;;;;;;4967819;28;20062;-70
2023/01/29 01:18:40;;;;;;;0.00;0.00;;;4.90;87.70;;;;;;4952935;28;20109;-70
2023/01/29 01:21:05;;;;;;;0.00;0.00;;;4.90;87.70;;;;;;4970645;28;20051;-70
2023/01/29 01:23:31;;;;;;;0.35;0.35;;;4.90;87.80;;;;;;4953152;28;20043;-70
2023/01/29 01:25:57;;;;;;;0.00;0.00;;;4.90;87.70;;;;;;4955096;28;20460;-70
2023/01/29 01:28:22;;;;;;;0.20;0.20;;;4.90;87.70;;;;;;4950637;29;20055;-70
2023/01/29 01:30:48;;;;;;;0.00;0.00;;;4.90;87.80;;;;;;4950861;28;20142;-70
2023/01/29 01:33:13;;;;;;;0.00;0.00;;;4.90;87.90;;;;;;4950925;28;20043;-70
2023/01/29 01:35:39;;;;;;;1.38;0.43;;;4.90;87.80;;;;;;4954343;28;20086;-70
2023/01/29 01:38:05;;;;;;;0.00;0.00;;;4.90;87.80;;;;;;4954466;28;20129;-70
2023/01/29 01:40:31;;;;;;;0.20;0.20;;;4.90;87.80;;;;;;4961515;28;20407;-70
2023/01/29 01:42:59;;;;;;;0.00;0.00;;;4.90;87.80;;;;;;4937274;28;20062;-70
2023/01/29 01:45:30;;;;;;;0.00;0.00;;;4.90;87.70;;;;;;4964144;28;20098;-70
2023/01/29 01:48:10;;;;;;;0.00;0.00;;;4.90;87.60;;;;;;4956483;28;20086;-70
2023/01/29 01:50:45;;;;;;;0.00;0.00;;;4.90;87.70;;;;;;4972653;28;20055;-70
2023/01/29 01:53:13;;;;;;;0.00;0.00;;;4.90;87.60;;;;;;4953966;28;20043;-70
2023/01/29 01:55:59;;;;;;;0.20;0.20;;;4.90;87.60;;;;;;4947680;28;20512;-70
2023/01/29 01:58:33;;;;;;;0.30;0.30;;;5.00;87.60;;;;;;4972040;28;20043;-70
2023/01/29 02:00:59;;;;;;;0.00;0.00;;;4.90;87.60;;;;;;4960356;28;20464;-70
2023/01/29 02:11:54;;;;;;;0.10;0.10;;;5.00;87.40;;;;;;4952825;28;20063;-70
2023/01/29 02:14:19;;;;;;;0.10;0.10;;;5.00;87.20;;;;;;4953932;28;20066;-70
2023/01/29 02:16:45;;;;;;;0.00;0.00;;;5.00;87.30;;;;;;4971847;28;20492;-70
2023/01/29 02:19:22;;;;;;;0.20;0.20;;;5.00;87.30;;;;;;4973072;28;20477;-70
2023/01/29 02:22:10;;;;;;;0.00;0.00;;;5.00;87.30;;;;;;4965132;28;20499;-70
2023/01/29 02:24:58;;;;;;;0.10;0.10;;;5.00;87.20;;;;;;4955688;28;20159;-70
2023/01/29 02:27:40;;;;;;;0.00;0.00;;;5.00;87.20;;;;;;4972941;28;20051;-70
2023/01/29 02:30:15;;;;;;;0.30;0.30;;;5.00;87.20;;;;;;4971600;28;20050;-70
2023/01/29 02:32:57;;;;;;;0.10;0.10;;;5.00;87.10;;;;;;4958196;28;20054;-70
2023/01/29 02:35:33;;;;;;;0.15;0.15;;;5.00;87.10;;;;;;4952345;28;20047;-70
2023/01/29 02:38:07;;;;;;;0.10;0.10;;;5.00;87.00;;;;;;4952418;28;20094;-70
2023/01/29 02:40:54;;;;;;;0.00;0.00;;;5.00;87.00;;;;;;4953110;28;20039;-70
2023/01/29 02:43:42;;;;;;;0.00;0.00;;;5.10;86.90;;;;;;4965845;28;20043;-70
2023/01/29 02:46:20;;;;;;;0.00;0.00;;;5.00;86.90;;;;;;4969839;28;20047;-70
2023/01/29 02:48:58;;;;;;;0.10;0.10;;;5.10;87.00;;;;;;4969631;28;20051;-70
2023/01/29 02:51:40;;;;;;;0.00;0.00;;;5.00;86.90;;;;;;4971044;28;20043;-70
2023/01/29 02:54:23;;;;;;;0.15;0.15;;;5.00;86.90;;;;;;4968733;28;20432;-70
2023/01/29 02:56:49;;;;;;;0.00;0.00;;;5.00;86.80;;;;;;4954201;28;20436;-70
2023/01/29 02:59:22;;;;;;;0.00;0.00;;;5.00;86.80;;;;;;4971689;28;20053;-71
2023/01/29 03:01:52;;;;;;;0.00;0.00;;;5.10;86.50;;;;;;4971032;28;20127;-70
2023/01/29 03:04:24;;;;;;;0.00;0.00;;;5.10;86.50;;;;;;4967788;28;20078;-70
2023/01/29 03:07:09;;;;;;;0.00;0.00;;;5.10;86.40;;;;;;4951865;28;20137;-70
2023/01/29 03:09:43;;;;;;;0.00;0.00;;;5.00;86.20;;;;;;4951811;28;20508;-70
2023/01/29 03:12:43;;;;;;;0.10;0.10;;;5.10;86.30;;;;;;4951919;29;20484;-70
2023/01/29 03:15:15;;;;;;;0.00;0.00;;;5.10;86.30;;;;;;4943595;28;20055;-70
2023/01/29 03:17:50;;;;;;;0.00;0.00;;;5.00;86.20;;;;;;4971040;28;20053;-70
2023/01/29 03:20:19;;;;;;;0.00;0.00;;;5.00;86.40;;;;;;4971194;28;20488;-70
2023/01/29 03:22:51;;;;;;;0.00;0.00;;;5.00;86.40;;;;;;4970954;28;20047;-70
2023/01/29 03:34:07;;;;;;;0.10;0.10;;;5.00;86.20;;;;;;4952065;28;20051;-70
2023/01/29 03:36:54;;;;;;;0.00;0.00;;;5.00;86.40;;;;;;4949687;28;20134;-70
2023/01/29 03:39:20;;;;;;;0.10;0.10;;;5.00;86.30;;;;;;4971739;28;20043;-70
2023/01/29 03:42:03;;;;;;;0.20;0.20;;;5.00;86.30;;;;;;4963018;28;20081;-70
2023/01/29 03:44:35;;;;;;;0.00;0.00;;;5.00;86.20;;;;;;4961234;28;20043;-70
2023/01/29 03:47:15;;;;;;;0.73;0.30;;;4.90;86.30;;;;;;4971185;28;20089;-70
2023/01/29 03:50:05;;;;;;;0.10;0.10;;;5.00;86.30;;;;;;4971134;28;20043;-70
2023/01/29 03:52:55;;;;;;;0.08;0.08;;;4.90;86.20;;;;;;4971444;28;20455;-70
2023/01/29 03:55:36;;;;;;;0.00;0.00;;;4.90;86.30;;;;;;4962352;28;20052;-70
2023/01/29 03:58:23;;;;;;;0.00;0.00;;;4.90;86.20;;;;;;4970929;28;20043;-70
2023/01/29 04:00:57;;;;;;;0.20;0.20;;;4.90;86.20;;;;;;4969814;28;20082;-70
2023/01/29 04:03:34;;;;;;;0.10;0.10;;;4.90;86.00;;;;;;4969611;28;20493;-70
2023/01/29 04:06:15;;;;;;;0.00;0.00;;;4.90;86.00;;;;;;4938263;29;20489;-70
2023/01/29 04:09:02;;;;;;;0.00;0.00;;;5.00;86.00;;;;;;4951686;28;20039;-70
2023/01/29 04:11:29;;;;;;;0.00;0.00;;;4.90;85.90;;;;;;4951599;28;20074;-70
2023/01/29 04:13:56;;;;;;;0.10;0.10;;;5.00;85.90;;;;;;4952331;28;20093;-70
2023/01/29 04:16:32;;;;;;;0.00;0.00;;;5.00;85.80;;;;;;4951398;28;20051;-70
2023/01/29 04:18:58;;;;;;;0.00;0.00;;;4.90;85.70;;;;;;4951345;28;20408;-70
2023/01/29 04:21:24;;;;;;;0.10;0.10;;;5.00;85.70;;;;;;4951906;28;20047;-70
2023/01/29 04:23:50;;;;;;;0.20;0.20;;;5.00;85.70;;;;;;4951508;29;20792;-70
2023/01/29 04:26:35;;;;;;;0.00;0.00;;;5.00;85.60;;;;;;4949472;28;20081;-70
2023/01/29 04:29:15;;;;;;;0.15;0.15;;;5.00;85.60;;;;;;4970282;28;20065;-70
2023/01/29 04:32:06;;;;;;;0.00;0.00;;;4.90;85.70;;;;;;4964014;28;20060;-70
2023/01/29 04:34:59;;;;;;;0.00;0.00;;;5.00;85.60;;;;;;4952618;28;20043;-70
2023/01/29 04:38:06;;;;;;;0.00;0.00;;;5.00;85.80;;;;;;4951521;28;20400;-70
2023/01/29 04:41:02;;;;;;;0.03;0.03;;;4.90;85.80;;;;;;4940000;28;20537;-70
2023/01/29 04:43:37;;;;;;;0.00;0.00;;;4.90;85.80;;;;;;4955303;28;20413;-70
2023/01/29 04:46:14;;;;;;;0.15;0.15;;;4.90;85.90;;;;;;4944861;29;20118;-70
2023/01/29 04:49:00;;;;;;;0.00;0.00;;;5.00;86.00;;;;;;4951211;28;20055;-70
2023/01/29 04:51:37;;;;;;;0.10;0.10;;;4.90;86.00;;;;;;4951390;28;20055;-70
2023/01/29 04:54:15;;;;;;;0.20;0.20;;;4.90;86.20;;;;;;4955977;28;20109;-70
2023/01/29 04:57:10;;;;;;;0.00;0.00;;;4.90;86.10;;;;;;4958762;28;20098;-70
2023/01/29 04:59:43;;;;;;;0.20;0.20;;;4.90;86.10;;;;;;4921133;28;20073;-70
2023/01/29 05:02:11;;;;;;;0.00;0.00;;;5.00;86.10;;;;;;4966843;28;20046;-70
2023/01/29 05:04:40;;;;;;;0.00;0.00;;;5.00;86.00;;;;;;4967188;28;20047;-70
2023/01/29 05:07:10;;;;;;;0.00;0.00;;;5.00;86.00;;;;;;4970246;28;20042;-70
2023/01/29 05:09:37;;;;;;;0.00;0.00;;;5.00;86.00;;;;;;4972290;28;20058;-70
2023/01/29 05:12:06;;;;;;;0.00;0.00;;;5.00;85.90;;;;;;4957028;28;20514;-70
2023/01/29 05:14:33;;;;;;;0.25;0.25;;;5.00;85.90;;;;;;4947197;28;20043;-70
2023/01/29 05:17:04;;;;;;;0.05;0.05;;;5.00;85.90;;;;;;4954778;28;20066;-70
2023/01/29 05:19:30;;;;;;;0.10;0.10;;;5.00;85.90;;;;;;4964578;28;20078;-70
2023/01/29 05:21:56;;;;;;;0.00;0.00;;;4.90;85.80;;;;;;4973877;28;20471;-70
2023/01/29 05:24:24;;;;;;;0.00;0.00;;;5.00;85.70;;;;;;4970988;28;20038;-70
2023/01/29 05:29:38;;;;;;;0.05;0.05;;;4.90;85.60;;;;;;4973072;28;20055;-70
2023/01/29 05:32:04;;;;;;;0.00;0.00;;;5.00;85.60;;;;;;4973893;28;20050;-70
2023/01/29 05:34:29;;;;;;;0.00;0.00;;;5.00;85.60;;;;;;4968607;28;20094;-70
2023/01/29 05:36:55;;;;;;;0.00;0.00;;;5.00;85.60;;;;;;4954189;28;20039;-70
2023/01/29 05:39:21;;;;;;;0.35;0.35;;;5.00;85.60;;;;;;4961860;28;20039;-70
2023/01/29 05:41:46;;;;;;;1.20;1.20;;;5.00;85.60;;;;;;4973770;28;20043;-70
2023/01/29 05:44:12;;;;;;;0.10;0.10;;;5.00;85.50;;;;;;4955235;28;20047;-70
2023/01/29 05:46:38;;;;;;;0.98;0.98;;;5.00;85.60;;;;;;4973234;28;20051;-70
2023/01/29 05:49:04;;;;;;;0.00;0.00;;;5.00;85.50;;;;;;4972752;28;20118;-70
2023/01/29 05:51:30;;;;;;;0.10;0.10;;;5.00;85.60;;;;;;4957201;28;20511;-70
2023/01/29 05:53:56;;;;;;;0.15;0.15;;;5.00;85.70;;;;;;4973148;28;20039;-70
2023/01/29 05:56:21;;;;;;;0.63;0.63;;;4.90;85.90;;;;;;4953142;28;20054;-70
2023/01/29 05:58:47;;;;;;;0.57;0.57;;;4.90;86.10;;;;;;4955101;28;20406;-70
2023/01/29 06:01:14;;;;;;;0.10;0.10;;;5.00;86.10;;;;;;4957914;28;20073;-70
2023/01/29 06:03:40;;;;;;;0.20;0.20;;;5.00;86.20;;;;;;4973095;28;20061;-70
2023/01/29 06:06:06;;;;;;;0.95;0.95;;;5.00;86.10;;;;;;4972567;28;20511;-70
2023/01/29 06:08:32;;;;;;;0.22;0.22;;;4.90;86.30;;;;;;4970967;28;20035;-70
2023/01/29 06:10:57;;;;;;;0.00;0.00;;;5.00;86.40;;;;;;4955754;28;20508;-70
2023/01/29 06:13:23;;;;;;;0.90;0.90;;;4.90;86.60;;;;;;4960761;28;20051;-70
2023/01/29 06:15:48;;;;;;;0.10;0.10;;;5.00;87.00;;;;;;4970371;28;20061;-70
2023/01/29 06:18:14;;;;;;;0.40;0.40;;;4.90;87.50;;;;;;4973250;28;20034;-71
2023/01/29 06:20:40;;;;;;;0.30;0.30;;;4.80;88.20;;;;;;4972315;28;20049;-71
2023/01/29 06:23:05;;;;;;;0.47;0.47;;;4.70;88.50;;;;;;4971333;28;20051;-70
2023/01/29 06:25:31;;;;;;;0.15;0.15;;;4.70;88.80;;;;;;4954096;28;20039;-70
2023/01/29 06:27:56;;;;;;;0.20;0.20;;;4.70;88.80;;;;;;4954557;28;20059;-70
2023/01/29 06:30:22;;;;;;;0.40;0.40;;;4.70;89.30;;;;;;4937105;29;20051;-70
2023/01/29 06:32:47;;;;;;;0.10;0.10;;;4.60;89.60;;;;;;4936279;29;20051;-70
2023/01/29 06:35:13;;;;;;;0.15;0.15;;;4.60;89.70;;;;;;4953551;28;20058;-70
2023/01/29 06:37:39;;;;;;;0.13;0.13;;;4.60;90.40;;;;;;4965379;28;20427;-70
2023/01/29 06:40:05;;;;;;;0.00;0.00;;;4.50;90.50;;;;;;4972547;28;20054;-69
2023/01/29 06:42:33;;;;;;;0.82;0.52;;;4.50;90.50;;;;;;4970667;28;20512;-70
2023/01/29 06:44:59;;;;;;;0.10;0.10;;;4.50;90.60;;;;;;4971587;28;20053;-70
2023/01/29 06:47:26;;;;;;;0.10;0.10;;;4.50;90.40;;;;;;4953834;28;20043;-70
2023/01/29 06:49:51;;;;;;;0.10;0.10;;;4.50;90.30;;;;;;4953311;28;20093;-70
2023/01/29 06:52:17;;;;;;;0.45;0.43;;;4.50;90.20;;;;;;4964341;28;20039;-70
2023/01/29 06:54:43;;;;;;;0.00;0.00;;;4.60;90.30;;;;;;4972145;28;20095;-70
2023/01/29 06:57:08;;;;;;;0.22;0.22;;;4.50;90.20;;;;;;4968314;28;20043;-70
2023/01/29 06:59:34;;;;;;;0.00;0.00;;;4.60;90.20;;;;;;4972215;28;20050;-69
2023/01/29 07:01:59;;;;;;;0.22;0.22;;;4.50;90.50;;;;;;4972415;28;20058;-70
2023/01/29 07:04:25;;;;;;;0.10;0.10;;;4.50;90.40;;;;;;4971109;28;20042;-70
2023/01/29 07:06:50;;;;;;;0.00;0.00;;;4.50;90.50;;;;;;4956847;28;20097;-70
2023/01/29 07:09:16;;;;;;;0.03;0.03;;;4.50;90.50;;;;;;4970217;28;20098;-70
2023/01/29 07:11:41;;;;;;;0.10;0.10;;;4.50;90.70;;;;;;4972429;28;20051;-70
2023/01/29 07:14:07;;;;;;;0.05;0.05;;;4.50;90.50;;;;;;4970334;28;20053;-71
2023/01/29 07:16:33;;;;;;;0.10;0.10;;;4.50;90.50;;;;;;4940778;28;20155;-70
2023/01/29 07:18:58;;;;;;;0.47;0.47;;;4.50;90.50;;;;;;4953565;28;20146;-70
2023/01/29 07:21:24;;;;;;;0.10;0.10;;;4.50;90.80;;;;;;4953397;29;20046;-70
2023/01/29 07:23:49;;;;;;;0.05;0.05;;;4.50;90.90;;;;;;4953379;28;20101;-70
2023/01/29 07:26:16;;;;;;;0.00;0.00;;;4.50;90.70;;;;;;4968973;28;20482;-70
2023/01/29 07:28:41;;;;;;;0.00;0.00;;;4.50;90.90;;;;;;4971873;28;20057;-70
2023/01/29 07:31:10;;;;;;;0.10;0.10;;;4.50;91.10;;;;;;4971805;28;20051;-70
2023/01/29 07:33:35;;;;;;;0.03;0.03;;;4.50;91.00;;;;;;4939146;28;20054;-70
2023/01/29 07:36:01;;;;;;;0.38;0.38;;;4.40;91.10;;;;;;4972185;28;20055;-70
2023/01/29 07:38:27;;;;;;;0.38;0.38;;;4.40;91.00;;;;;;4972403;28;20065;-70
2023/01/29 07:40:52;;;;;;;0.10;0.10;;;4.50;91.00;;;;;;4972629;28;20098;-70
2023/01/29 07:43:18;;;;;;;0.22;0.22;;;4.50;91.20;;;;;;4953713;28;20051;-70
2023/01/29 07:45:43;;;;;;;0.43;0.43;;;4.50;91.20;;;;;;4972330;28;20053;-71
2023/01/29 07:48:11;;;;;;;0.85;0.85;;;4.40;91.30;;;;;;4960201;28;20515;-70
2023/01/29 07:50:37;;;;;;;1.40;0.55;;;4.50;91.40;;;;;;4969412;28;20121;-71
2023/01/29 07:53:03;;;;;;;0.55;0.55;;;4.50;91.40;;;;;;4957400;28;20049;-70
2023/01/29 07:55:29;;;;;;;0.30;0.30;;;4.50;91.40;;;;;;4971061;28;20038;-70
2023/01/29 07:58:00;;;;;;;0.10;0.10;;;4.50;91.40;;;;;;4971571;28;20043;-70
2023/01/29 08:00:27;;;;;;;0.00;0.00;;;4.50;91.40;;;;;;4964641;28;20094;-71
2023/01/29 08:02:53;;;;;;;0.28;0.28;;;4.50;91.50;;;;;;4935636;28;20081;-70
2023/01/29 08:05:19;;;;;;;0.00;0.00;;;4.50;91.60;;;;;;4919884;29;20086;-70
2023/01/29 08:07:44;;;;;;;0.75;0.52;;;4.50;91.70;;;;;;4953585;28;20055;-71
2023/01/29 08:10:10;;;;;;;0.45;0.45;;;4.60;91.70;;;;;;4952109;28;20071;-71
2023/01/29 08:12:36;;;;;;;0.10;0.10;;;4.50;91.80;;;;;;4952546;29;20052;-70
2023/01/29 08:15:01;;;;;;;0.20;0.20;;;4.60;91.70;;;;;;4952577;28;20051;-70
2023/01/29 08:17:27;;;;;;;0.10;0.10;;;4.50;91.90;;;;;;4934428;28;20507;-70
2023/01/29 08:19:52;;;;;;;0.10;0.10;;;4.60;91.90;;;;;;4957338;28;20043;-70
2023/01/29 08:22:18;;;;;;;0.77;0.65;;;4.60;91.80;;;;;;4954492;28;20086;-71
2023/01/29 08:24:43;;;;;;;0.10;0.10;;;4.60;91.80;;;;;;4952340;28;20047;-71
2023/01/29 08:27:09;;;;;;;0.00;0.00;;;4.60;91.90;;;;;;4935400;29;20453;-70
2023/01/29 08:29:34;;;;;;;0.10;0.10;;;4.60;91.90;;;;;;4952518;29;20051;-71
2023/01/29 08:32:00;;;;;;;0.00;0.00;;;4.70;91.80;;;;;;4957582;28;20511;-70
2023/01/29 08:34:26;;;;;;;0.47;0.47;;;4.60;91.80;;;;;;4972356;28;20043;-71
2023/01/29 08:36:52;;;;;;;0.20;0.20;;;4.70;91.80;;;;;;4971124;28;20483;-70
2023/01/29 08:39:18;;;;;;;0.10;0.10;;;4.70;91.70;;;;;;4971566;28;20086;-71
2023/01/29 08:41:43;;;;;;;0.08;0.08;;;4.70;91.70;;;;;;4968473;28;20078;-70
2023/01/29 08:44:09;;;;;;;0.00;0.00;;;4.80;91.70;;;;;;4944532;29;20086;-70
2023/01/29 08:46:36;;;;;;;0.10;0.10;;;4.70;91.60;;;;;;4951731;28;20047;-70
2023/01/29 08:49:02;;;;;;;0.82;0.75;;;4.80;91.60;;;;;;4967610;28;20045;-70
2023/01/29 08:51:27;;;;;;;0.10;0.10;;;4.80;91.60;;;;;;4971389;28;20046;-70
2023/01/29 08:53:53;;;;;;;0.32;0.32;;;4.90;91.50;;;;;;4971013;28;20039;-70
2023/01/29 08:56:19;;;;;;;0.10;0.10;;;4.90;91.50;;;;;;4970749;28;20484;-70
2023/01/29 08:58:44;;;;;;;0.10;0.10;;;4.90;91.50;;;;;;4971183;28;20050;-70
2023/01/29 09:01:12;;;;;;;0.05;0.05;;;4.80;91.40;;;;;;4970744;28;20510;-70
2023/01/29 09:03:42;;;;;;;0.85;0.70;;;4.80;91.50;;;;;;4970668;28;20047;-70
2023/01/29 09:06:10;;;;;;;0.00;0.00;;;4.90;91.40;;;;;;4964593;28;20035;-70
2023/01/29 09:08:36;;;;;;;0.10;0.10;;;4.90;91.40;;;;;;4965667;28;20042;-70
2023/01/29 09:11:01;;;;;;;0.63;0.63;;;4.80;91.40;;;;;;4964881;28;20042;-68
2023/01/29 09:13:27;;;;;;;0.00;0.00;;;4.90;91.40;;;;;;4952238;29;20078;-69
2023/01/29 09:15:52;;;;;;;1.00;1.00;;;4.80;91.60;;;;;;4951508;28;20472;-68
2023/01/29 09:18:18;;;;;;;1.98;1.88;;;4.80;91.50;;;;;;4968695;28;20046;-68
2023/01/29 09:20:43;;;;;;;0.10;0.10;;;4.90;91.70;;;;;;4970798;28;20049;-68
2023/01/29 09:23:09;;;;;;;0.10;0.10;;;5.00;91.50;;;;;;4970800;28;20571;-68
2023/01/29 09:25:36;;;;;;;0.10;0.10;;;4.90;91.30;;;;;;4970769;28;20043;-68
2023/01/29 09:28:02;;;;;;;0.10;0.10;;;5.00;91.40;;;;;;4969268;28;20097;-69
2023/01/29 09:30:27;;;;;;;0.00;0.00;;;4.90;91.40;;;;;;4953886;28;20047;-69
2023/01/29 09:32:53;;;;;;;0.10;0.10;;;4.90;91.20;;;;;;4963660;28;20070;-70
2023/01/29 09:35:19;;;;;;;3.20;1.42;;;5.00;91.20;;;;;;4962061;28;20086;-70
2023/01/29 09:37:48;;;;;;;0.10;0.10;;;5.00;91.40;;;;;;4959625;28;20098;-70
2023/01/29 09:40:25;;;;;;;0.00;0.00;;;5.00;91.40;;;;;;4953514;28;20043;-70
2023/01/29 09:42:59;;;;;;;0.13;0.13;;;5.00;91.30;;;;;;4964401;28;20053;-70
2023/01/29 09:45:27;;;;;;;0.10;0.10;;;5.00;91.40;;;;;;4961835;28;20046;-70
2023/01/29 09:47:57;;;;;;;0.10;0.10;;;5.00;91.50;;;;;;4979365;28;20039;-71
2023/01/29 09:50:30;;;;;;;0.57;0.57;;;5.00;91.40;;;;;;4943559;28;20130;-71
2023/01/29 09:53:09;;;;;;;1.10;1.08;;;5.10;91.50;;;;;;4970574;28;20043;-71
2023/01/29 09:55:43;;;;;;;0.20;0.20;;;5.00;91.60;;;;;;4975907;28;20055;-71
2023/01/29 09:58:23;;;;;;;0.10;0.10;;;5.10;91.60;;;;;;4963686;28;20043;-71
2023/01/29 10:01:07;;;;;;;1.23;1.17;;;5.10;91.70;;;;;;4981139;28;20051;-71
2023/01/29 10:03:47;;;;;;;0.00;0.00;;;5.00;92.00;;;;;;4963654;28;20050;-71
2023/01/29 10:06:50;;;;;;;0.10;0.10;;;5.10;91.90;;;;;;4982531;28;20064;-71
2023/01/29 10:09:53;;;;;;;5.72;0.73;;;5.00;92.10;;;;;;4975971;28;20053;-71
2023/01/29 10:12:37;;;;;;;0.10;0.10;;;5.10;92.10;;;;;;4974284;28;20130;-71
2023/01/29 10:15:20;;;;;;;0.22;0.22;;;5.10;92.10;;;;;;4956389;28;20488;-71
2023/01/29 10:18:23;;;;;;;1.15;1.05;;;5.10;92.10;;;;;;4957024;28;20694;-71
2023/01/29 10:21:23;;;;;;;0.40;0.40;;;5.10;92.30;;;;;;4956625;28;20521;-71
2023/01/29 10:24:13;;;;;;;0.10;0.10;;;5.10;92.40;;;;;;4973661;28;20059;-71
2023/01/29 10:26:40;;;;;;;0.30;0.30;;;5.10;92.60;;;;;;4972439;28;20447;-71
2023/01/29 10:29:06;;;;;;;0.05;0.05;;;5.10;92.50;;;;;;4973386;28;20585;-71
2023/01/29 10:31:37;;;;;;;0.00;0.00;;;5.10;92.50;;;;;;4972526;28;20178;-71
2023/01/29 10:34:26;;;;;;;1.33;1.25;;;5.10;92.70;;;;;;4956565;28;20051;-71
2023/01/29 10:36:53;;;;;;;0.10;0.10;;;5.20;92.70;;;;;;4955763;28;20054;-71
2023/01/29 10:39:21;;;;;;;0.63;0.63;;;5.20;92.70;;;;;;4972358;28;20062;-71
2023/01/29 10:42:11;;;;;;;3.40;2.38;;;5.20;93.00;;;;;;4973087;28;20487;-71
2023/01/29 10:44:53;;;;;;;0.17;0.17;;;5.20;93.10;;;;;;4973142;28;20042;-71
2023/01/29 10:47:19;;;;;;;;;;;5.30;93.10;;;;;;4973809;28;20078;-71
2023/01/29 10:50:11;;;;;;;0.57;0.57;;;5.40;93.10;;;;;;4972708;28;19972;-71
2023/01/29 10:53:21;;;;;;;0.10;0.10;;;5.40;93.00;;;;;;4956273;28;20439;-71
2023/01/29 10:56:05;;;;;;;0.10;0.10;;;5.40;93.20;;;;;;4973158;28;20053;-67
2023/01/29 10:58:47;;;;;;;0.00;0.00;;;5.40;93.30;;;;;;4970723;28;20043;-72
2023/01/29 11:01:13;;;;;;;4.43;3.45;;;5.40;93.20;;;;;;4969124;28;20049;-72
2023/01/29 11:03:39;;;;;;;0.10;0.10;;;5.50;93.20;;;;;;4961980;28;20408;-72
2023/01/29 11:06:24;;;;;;;0.10;0.10;;;5.50;93.10;;;;;;4937229;28;20401;-71
2023/01/29 11:08:58;;;;;;;0.08;0.08;;;5.50;93.00;;;;;;4966142;28;20518;-71
2023/01/29 11:11:42;;;;;;;0.10;0.10;;;5.50;93.00;;;;;;4970712;28;20050;-71
2023/01/29 11:14:30;;;;;;;0.38;0.38;;;5.50;93.10;;;;;;4955513;28;20134;-71
2023/01/29 11:16:56;;;;;;;0.05;0.05;;;5.60;93.00;;;;;;4953593;28;20504;-72
2023/01/29 11:19:43;;;;;;;1.02;0.98;;;5.50;93.10;;;;;;4957452;28;20043;-72
2023/01/29 11:22:23;;;;;;;4.13;0.75;;;5.50;93.30;;;;;;4968196;28;20109;-71
2023/01/29 11:25:15;;;;;;;0.10;0.10;;;5.50;93.00;;;;;;4946590;28;20070;-72
2023/01/29 11:27:46;;;;;;;1.08;1.08;;;5.50;93.20;;;;;;4952993;28;20051;-72
2023/01/29 11:30:26;;;;;;;0.05;0.05;;;5.50;93.30;;;;;;4957673;28;20062;-73
2023/01/29 11:33:04;;;;;;;0.45;0.45;;;5.50;93.30;;;;;;4937991;28;20093;-72
2023/01/29 11:35:32;;;;;;;0.10;0.10;;;5.50;93.50;;;;;;4938085;28;20050;-72
2023/01/29 11:38:20;;;;;;;0.60;0.60;;;5.60;93.50;;;;;;4972418;28;20051;-72
2023/01/29 11:40:46;;;;;;;0.45;0.45;;;5.60;93.70;;;;;;4972069;28;20085;-72
2023/01/29 11:43:17;;;;;;;0.52;0.52;;;5.60;93.70;;;;;;4972233;28;20077;-72
2023/01/29 11:45:43;;;;;;;0.20;0.20;;;5.60;93.60;;;;;;4954918;28;20560;-72
2023/01/29 11:48:20;;;;;;;0.00;0.00;;;5.60;93.70;;;;;;4938818;28;20100;-72
2023/01/29 11:50:59;;;;;;;0.25;0.25;;;5.60;93.60;;;;;;4972109;28;20585;-72
2023/01/29 11:53:42;;;;;;;0.10;0.10;;;5.60;93.50;;;;;;4971986;28;20139;-72
2023/01/29 11:56:28;;;;;;;0.10;0.10;;;5.60;93.40;;;;;;4971889;28;20510;-72
2023/01/29 11:58:56;;;;;;;0.00;0.00;;;5.50;93.30;;;;;;4971608;28;20051;-72
2023/01/29 12:01:36;;;;;;;0.10;0.10;;;5.50;93.30;;;;;;4971669;28;20538;-72
2023/01/29 12:04:03;;;;;;;0.73;0.73;;;5.40;93.10;;;;;;4953947;28;20512;-72
2023/01/29 12:06:35;;;;;;;0.20;0.20;;;5.40;93.30;;;;;;4971356;28;20486;-72
2023/01/29 12:09:09;;;;;;;0.00;0.00;;;5.40;93.30;;;;;;4961589;28;20047;-74
2023/01/29 12:11:35;;;;;;;0.20;0.20;;;5.40;93.40;;;;;;4954055;28;20047;-73
2023/01/29 12:14:05;;;;;;;0.00;0.00;;;5.50;93.20;;;;;;4966401;28;20121;-73
2023/01/29 12:16:46;;;;;;;0.00;0.00;;;5.40;93.20;;;;;;4960813;28;20039;-71
2023/01/29 12:19:31;;;;;;;0.17;0.17;;;5.30;93.10;;;;;;4940968;28;20066;-71
2023/01/29 12:22:07;;;;;;;3.42;0.80;;;5.30;93.00;;;;;;4947423;28;20393;-68
2023/01/29 12:24:44;;;;;;;0.30;0.30;;;5.20;92.90;;;;;;4951115;28;20051;-72
2023/01/29 12:27:32;;;;;;;0.20;0.20;;;5.20;93.10;;;;;;4938218;28;20206;-71
2023/01/29 12:30:14;;;;;;;0.08;0.08;;;5.20;93.10;;;;;;4949901;28;20090;-71
2023/01/29 12:32:54;;;;;;;0.00;0.00;;;5.20;93.10;;;;;;4950106;28;20141;-71
2023/01/29 12:35:36;;;;;;;0.52;0.52;;;5.20;93.20;;;;;;4917880;29;20051;-71
2023/01/29 12:38:08;;;;;;;0.10;0.10;;;5.10;93.10;;;;;;4951037;28;20057;-71
2023/01/29 12:40:49;;;;;;;0.57;0.57;;;5.10;93.20;;;;;;4950810;28;20043;-71
2023/01/29 12:43:25;;;;;;;0.10;0.10;;;5.10;93.10;;;;;;4934158;29;20062;-71
2023/01/29 12:45:54;;;;;;;0.40;0.40;;;5.00;93.20;;;;;;4950990;28;20050;-71
2023/01/29 12:48:45;;;;;;;1.67;1.45;;;5.10;93.20;;;;;;4933933;29;20051;-71
2023/01/29 12:51:18;;;;;;;0.55;0.50;;;5.00;93.20;;;;;;4918032;29;20047;-71
2023/01/29 12:53:53;;;;;;;1.23;1.13;;;5.00;93.20;;;;;;4950928;28;20500;-72
2023/01/29 12:56:38;;;;;;;0.47;0.47;;;5.00;93.20;;;;;;4951158;28;20146;-71
2023/01/29 12:59:16;;;;;;;0.20;0.20;;;5.00;93.20;;;;;;4951072;28;20051;-71
2023/01/29 13:01:52;;;;;;;0.10;0.10;;;4.90;93.30;;;;;;4950851;28;20062;-71
2023/01/29 13:04:42;;;;;;;3.92;2.22;;;4.80;93.50;;;;;;4951040;28;20053;-71
2023/01/29 13:07:17;;;;;;;1.30;1.20;;;4.80;93.60;;;;;;4951030;28;20086;-71
2023/01/29 13:09:49;;;;;;;0.00;0.00;;;4.80;93.60;;;;;;4950986;28;20047;-71
2023/01/29 13:12:17;;;;;;;0.15;0.15;;;4.80;93.60;;;;;;4950794;28;20408;-71
2023/01/29 13:14:59;;;;;;;0.38;0.38;;;4.90;93.60;;;;;;4933606;29;20047;-71
2023/01/29 13:17:38;;;;;;;0.20;0.20;;;4.80;93.50;;;;;;4951034;28;20058;-71
2023/01/29 13:20:12;;;;;;;0.38;0.38;;;4.90;93.60;;;;;;4950823;28;20070;-71
2023/01/29 13:22:39;;;;;;;0.52;0.52;;;4.80;93.60;;;;;;4933384;28;20055;-71
2023/01/29 13:25:11;;;;;;;0.40;0.40;;;4.80;93.60;;;;;;4950948;28;20059;-71
2023/01/29 13:27:37;;;;;;;0.10;0.10;;;4.90;93.50;;;;;;4950963;28;20043;-71
2023/01/29 13:30:04;;;;;;;2.35;1.15;;;4.90;93.60;;;;;;4952019;28;20055;-71
2023/01/29 13:32:33;;;;;;;0.10;0.10;;;4.80;93.50;;;;;;4921402;29;20047;-71
2023/01/29 13:35:12;;;;;;;0.10;0.10;;;4.80;93.60;;;;;;4937292;29;20872;-72
2023/01/29 13:37:46;;;;;;;1.15;1.05;;;4.80;93.60;;;;;;4954816;28;20051;-71
2023/01/29 13:40:29;;;;;;;5.88;1.10;;;4.80;93.50;;;;;;4921436;29;20057;-71
2023/01/29 13:42:55;;;;;;;;;;;4.80;93.60;;;;;;4937638;28;20087;-71
2023/01/29 13:45:23;;;;;;;0.05;0.05;;;4.80;93.70;;;;;;4954060;28;19932;-71
2023/01/29 13:47:51;;;;;;;0.38;0.38;;;4.70;93.80;;;;;;4954248;28;20642;-71
2023/01/29 13:50:24;;;;;;;1.58;1.48;;;4.70;93.90;;;;;;4936947;29;20064;-71
2023/01/29 13:53:00;;;;;;;0.20;0.20;;;4.80;94.00;;;;;;4921160;28;20054;-71